sensor_id;sensor_type;location;lat;lon;timestamp;temperature;humidity
63299;DHT22;54535;52.138;5.398;2022-11-02T00:02:12;13.30;99.90
63299;DHT22;54535;52.138;5.398;2022-11-02T00:04:39;13.20;99.90
63299;DHT22;54535;52.138;5.398;2022-11-02T00:07:05;13.10;99.90
63299;DHT22;54535;52.138;5.398;2022-11-02T00:09:32;13.10;99.90
63299;DHT22;54535;52.138;5.398;2022-11-02T00:11:59;13.10;99.90
63299;DHT22;54535;52.138;5.398;2022-11-02T00:14:25;13.10;99.90
63299;DHT22;54535;52.138;5.398;2022-11-02T00:16:52;13.10;99.90
63299;DHT22;54535;52.138;5.398;2022-11-02T00:19:19;13.10;99.90
63299;DHT22;54535;52.138;5.398;2022-11-02T00:21:45;13.20;99.90
63299;DHT22;54535;52.138;5.398;2022-11-02T00:24:12;13.20;99.90
63299;DHT22;54535;52.138;5.398;2022-11-02T00:26:38;13.20;99.90
63299;DHT22;54535;52.138;5.398;2022-11-02T00:29:05;13.20;99.90
63299;DHT22;54535;52.138;5.398;2022-11-02T00:31:32;13.10;99.90
63299;DHT22;54535;52.138;5.398;2022-11-02T00:33:59;13.10;99.90
63299;DHT22;54535;52.138;5.398;2022-11-02T00:36:26;13.20;99.90
63299;DHT22;54535;52.138;5.398;2022-11-02T00:38:53;13.20;99.90
63299;DHT22;54535;52.138;5.398;2022-11-02T00:41:19;13.30;99.90
63299;DHT22;54535;52.138;5.398;2022-11-02T00:43:46;13.30;99.90
63299;DHT22;54535;52.138;5.398;2022-11-02T00:46:13;13.30;99.90
63299;DHT22;54535;52.138;5.398;2022-11-02T00:48:40;13.30;99.90
63299;DHT22;54535;52.138;5.398;2022-11-02T00:51:08;13.30;99.90
63299;DHT22;54535;52.138;5.398;2022-11-02T00:53:34;13.30;99.90
63299;DHT22;54535;52.138;5.398;2022-11-02T00:56:01;13.30;99.90
63299;DHT22;54535;52.138;5.398;2022-11-02T00:58:28;13.30;99.90
63299;DHT22;54535;52.138;5.398;2022-11-02T01:00:55;13.30;99.90
63299;DHT22;54535;52.138;5.398;2022-11-02T01:03:22;13.30;99.90
63299;DHT22;54535;52.138;5.398;2022-11-02T01:05:48;13.30;99.90
63299;DHT22;54535;52.138;5.398;2022-11-02T01:08:15;13.30;99.90
63299;DHT22;54535;52.138;5.398;2022-11-02T01:10:42;13.30;99.90
63299;DHT22;54535;52.138;5.398;2022-11-02T01:13:15;13.30;99.90
63299;DHT22;54535;52.138;5.398;2022-11-02T01:15:41;13.30;99.90
63299;DHT22;54535;52.138;5.398;2022-11-02T01:18:08;13.10;99.90
63299;DHT22;54535;52.138;5.398;2022-11-02T01:20:35;13.00;99.90
63299;DHT22;54535;52.138;5.398;2022-11-02T01:23:01;12.80;99.90
63299;DHT22;54535;52.138;5.398;2022-11-02T01:25:28;12.70;99.90
63299;DHT22;54535;52.138;5.398;2022-11-02T01:27:55;12.60;99.90
63299;DHT22;54535;52.138;5.398;2022-11-02T01:30:21;12.50;99.90
63299;DHT22;54535;52.138;5.398;2022-11-02T01:32:48;12.40;99.90
63299;DHT22;54535;52.138;5.398;2022-11-02T01:35:15;12.30;99.90
63299;DHT22;54535;52.138;5.398;2022-11-02T01:37:42;12.30;99.90
63299;DHT22;54535;52.138;5.398;2022-11-02T01:40:09;12.10;99.90
63299;DHT22;54535;52.138;5.398;2022-11-02T01:42:35;12.00;99.90
63299;DHT22;54535;52.138;5.398;2022-11-02T01:45:02;11.90;99.90
63299;DHT22;54535;52.138;5.398;2022-11-02T01:47:34;11.80;99.90
63299;DHT22;54535;52.138;5.398;2022-11-02T01:50:16;11.80;99.90
63299;DHT22;54535;52.138;5.398;2022-11-02T01:52:44;11.70;99.90
63299;DHT22;54535;52.138;5.398;2022-11-02T01:57:38;11.60;99.90
63299;DHT22;54535;52.138;5.398;2022-11-02T02:00:06;11.50;99.90
63299;DHT22;54535;52.138;5.398;2022-11-02T02:03:14;11.50;99.90
63299;DHT22;54535;52.138;5.398;2022-11-02T02:05:33;11.40;99.90
63299;DHT22;54535;52.138;5.398;2022-11-02T02:08:01;11.40;99.90
63299;DHT22;54535;52.138;5.398;2022-11-02T02:10:30;11.40;99.90
63299;DHT22;54535;52.138;5.398;2022-11-02T02:12:56;11.30;99.90
63299;DHT22;54535;52.138;5.398;2022-11-02T02:15:24;11.30;99.90
63299;DHT22;54535;52.138;5.398;2022-11-02T02:17:59;11.30;99.90
63299;DHT22;54535;52.138;5.398;2022-11-02T02:28:33;11.20;99.90
63299;DHT22;54535;52.138;5.398;2022-11-02T02:31:09;11.20;99.90
63299;DHT22;54535;52.138;5.398;2022-11-02T02:33:44;11.20;99.90
63299;DHT22;54535;52.138;5.398;2022-11-02T02:36:22;11.20;99.90
63299;DHT22;54535;52.138;5.398;2022-11-02T02:38:54;11.20;99.90
63299;DHT22;54535;52.138;5.398;2022-11-02T02:41:24;11.20;99.90
63299;DHT22;54535;52.138;5.398;2022-11-02T02:43:55;11.20;99.90
63299;DHT22;54535;52.138;5.398;2022-11-02T02:49:24;11.20;99.90
63299;DHT22;54535;52.138;5.398;2022-11-02T02:51:51;11.30;99.90
63299;DHT22;54535;52.138;5.398;2022-11-02T02:54:19;11.30;99.90
63299;DHT22;54535;52.138;5.398;2022-11-02T02:56:51;11.40;99.90
63299;DHT22;54535;52.138;5.398;2022-11-02T02:59:21;11.40;99.90
63299;DHT22;54535;52.138;5.398;2022-11-02T03:01:49;11.50;99.90
63299;DHT22;54535;52.138;5.398;2022-11-02T03:04:16;11.50;99.90
63299;DHT22;54535;52.138;5.398;2022-11-02T03:06:45;11.60;99.90
63299;DHT22;54535;52.138;5.398;2022-11-02T03:14:33;11.60;99.90
63299;DHT22;54535;52.138;5.398;2022-11-02T03:17:15;11.70;99.90
63299;DHT22;54535;52.138;5.398;2022-11-02T03:19:48;11.70;99.90
63299;DHT22;54535;52.138;5.398;2022-11-02T03:30:18;11.80;99.90
63299;DHT22;54535;52.138;5.398;2022-11-02T03:32:55;11.90;99.90
63299;DHT22;54535;52.138;5.398;2022-11-02T03:35:28;11.80;99.90
63299;DHT22;54535;52.138;5.398;2022-11-02T03:37:59;11.80;99.90
63299;DHT22;54535;52.138;5.398;2022-11-02T03:40:34;11.90;99.90
63299;DHT22;54535;52.138;5.398;2022-11-02T03:43:03;11.90;99.90
63299;DHT22;54535;52.138;5.398;2022-11-02T03:45:34;11.90;99.90
63299;DHT22;54535;52.138;5.398;2022-11-02T03:48:03;11.90;99.90
63299;DHT22;54535;52.138;5.398;2022-11-02T03:50:31;11.90;99.90
63299;DHT22;54535;52.138;5.398;2022-11-02T03:53:05;12.00;99.90
63299;DHT22;54535;52.138;5.398;2022-11-02T03:55:37;12.00;99.90
63299;DHT22;54535;52.138;5.398;2022-11-02T03:58:05;12.00;99.90
63299;DHT22;54535;52.138;5.398;2022-11-02T04:00:35;12.00;99.90
63299;DHT22;54535;52.138;5.398;2022-11-02T04:03:07;12.10;99.90
63299;DHT22;54535;52.138;5.398;2022-11-02T04:05:40;12.20;99.90
63299;DHT22;54535;52.138;5.398;2022-11-02T04:08:16;12.20;99.90
63299;DHT22;54535;52.138;5.398;2022-11-02T04:10:52;12.20;99.90
63299;DHT22;54535;52.138;5.398;2022-11-02T04:13:39;12.20;99.90
63299;DHT22;54535;52.138;5.398;2022-11-02T04:16:27;12.30;99.90
63299;DHT22;54535;52.138;5.398;2022-11-02T04:18:56;12.30;99.90
63299;DHT22;54535;52.138;5.398;2022-11-02T04:21:43;12.30;99.90
63299;DHT22;54535;52.138;5.398;2022-11-02T04:24:32;12.30;99.90
63299;DHT22;54535;52.138;5.398;2022-11-02T04:27:18;12.40;99.90
63299;DHT22;54535;52.138;5.398;2022-11-02T04:29:47;12.40;99.90
63299;DHT22;54535;52.138;5.398;2022-11-02T04:32:14;12.40;99.90
63299;DHT22;54535;52.138;5.398;2022-11-02T04:35:03;12.40;99.90
63299;DHT22;54535;52.138;5.398;2022-11-02T04:37:36;12.50;99.90
63299;DHT22;54535;52.138;5.398;2022-11-02T04:40:21;12.50;99.90
63299;DHT22;54535;52.138;5.398;2022-11-02T04:42:48;12.50;99.90
63299;DHT22;54535;52.138;5.398;2022-11-02T04:45:15;12.50;99.90
63299;DHT22;54535;52.138;5.398;2022-11-02T04:47:42;12.50;99.90
63299;DHT22;54535;52.138;5.398;2022-11-02T04:50:09;12.50;99.90
63299;DHT22;54535;52.138;5.398;2022-11-02T04:52:36;12.50;99.90
63299;DHT22;54535;52.138;5.398;2022-11-02T04:55:02;12.50;99.90
63299;DHT22;54535;52.138;5.398;2022-11-02T04:57:29;12.50;99.90
63299;DHT22;54535;52.138;5.398;2022-11-02T04:59:58;12.50;99.90
63299;DHT22;54535;52.138;5.398;2022-11-02T05:02:25;12.50;99.90
63299;DHT22;54535;52.138;5.398;2022-11-02T05:04:53;12.50;99.90
63299;DHT22;54535;52.138;5.398;2022-11-02T05:07:21;12.40;99.90
63299;DHT22;54535;52.138;5.398;2022-11-02T05:09:49;12.40;99.90
63299;DHT22;54535;52.138;5.398;2022-11-02T05:12:16;12.40;99.90
63299;DHT22;54535;52.138;5.398;2022-11-02T05:14:43;12.40;99.90
63299;DHT22;54535;52.138;5.398;2022-11-02T05:17:09;12.40;99.90
63299;DHT22;54535;52.138;5.398;2022-11-02T05:19:37;12.30;99.90
63299;DHT22;54535;52.138;5.398;2022-11-02T05:22:04;12.30;99.90
63299;DHT22;54535;52.138;5.398;2022-11-02T05:24:32;12.30;99.90
63299;DHT22;54535;52.138;5.398;2022-11-02T05:27:00;12.20;99.90
63299;DHT22;54535;52.138;5.398;2022-11-02T05:29:29;12.20;99.90
63299;DHT22;54535;52.138;5.398;2022-11-02T05:31:56;12.20;99.90
63299;DHT22;54535;52.138;5.398;2022-11-02T05:34:23;12.20;99.90
63299;DHT22;54535;52.138;5.398;2022-11-02T05:36:50;12.10;99.90
63299;DHT22;54535;52.138;5.398;2022-11-02T05:39:16;12.10;99.90
63299;DHT22;54535;52.138;5.398;2022-11-02T05:41:43;12.10;99.90
63299;DHT22;54535;52.138;5.398;2022-11-02T05:44:11;12.10;99.90
63299;DHT22;54535;52.138;5.398;2022-11-02T05:46:38;12.00;99.90
63299;DHT22;54535;52.138;5.398;2022-11-02T05:49:05;12.10;99.90
63299;DHT22;54535;52.138;5.398;2022-11-02T05:51:31;12.10;99.90
63299;DHT22;54535;52.138;5.398;2022-11-02T05:53:58;12.10;99.90
63299;DHT22;54535;52.138;5.398;2022-11-02T05:56:25;12.10;99.90
63299;DHT22;54535;52.138;5.398;2022-11-02T05:58:52;12.10;99.90
63299;DHT22;54535;52.138;5.398;2022-11-02T06:01:19;12.10;99.90
63299;DHT22;54535;52.138;5.398;2022-11-02T06:03:46;12.10;99.90
63299;DHT22;54535;52.138;5.398;2022-11-02T06:06:19;12.10;99.90
63299;DHT22;54535;52.138;5.398;2022-11-02T06:08:46;12.10;99.90
63299;DHT22;54535;52.138;5.398;2022-11-02T06:11:13;12.10;99.90
63299;DHT22;54535;52.138;5.398;2022-11-02T06:13:40;12.10;99.90
63299;DHT22;54535;52.138;5.398;2022-11-02T06:16:07;12.10;99.90
63299;DHT22;54535;52.138;5.398;2022-11-02T06:18:37;12.10;99.90
63299;DHT22;54535;52.138;5.398;2022-11-02T06:21:03;12.10;99.90
63299;DHT22;54535;52.138;5.398;2022-11-02T06:23:30;12.10;99.90
63299;DHT22;54535;52.138;5.398;2022-11-02T06:25:57;12.10;99.90
63299;DHT22;54535;52.138;5.398;2022-11-02T06:28:25;12.10;99.90
63299;DHT22;54535;52.138;5.398;2022-11-02T06:30:52;12.10;99.90
63299;DHT22;54535;52.138;5.398;2022-11-02T06:33:19;12.10;99.90
63299;DHT22;54535;52.138;5.398;2022-11-02T06:35:46;12.10;99.90
63299;DHT22;54535;52.138;5.398;2022-11-02T06:38:13;12.10;99.90
63299;DHT22;54535;52.138;5.398;2022-11-02T06:40:40;12.10;99.90
63299;DHT22;54535;52.138;5.398;2022-11-02T06:43:07;12.10;99.90
63299;DHT22;54535;52.138;5.398;2022-11-02T06:45:42;12.10;99.90
63299;DHT22;54535;52.138;5.398;2022-11-02T06:48:09;12.10;99.90
63299;DHT22;54535;52.138;5.398;2022-11-02T06:50:36;12.10;99.90
63299;DHT22;54535;52.138;5.398;2022-11-02T06:53:02;12.10;99.90
63299;DHT22;54535;52.138;5.398;2022-11-02T06:55:30;12.10;99.90
63299;DHT22;54535;52.138;5.398;2022-11-02T06:57:56;12.00;99.90
63299;DHT22;54535;52.138;5.398;2022-11-02T07:00:23;12.00;99.90
63299;DHT22;54535;52.138;5.398;2022-11-02T07:02:59;12.00;99.90
63299;DHT22;54535;52.138;5.398;2022-11-02T07:05:26;12.00;99.90
63299;DHT22;54535;52.138;5.398;2022-11-02T07:07:53;12.00;99.90
63299;DHT22;54535;52.138;5.398;2022-11-02T07:10:20;12.00;99.90
63299;DHT22;54535;52.138;5.398;2022-11-02T07:12:46;12.00;99.90
63299;DHT22;54535;52.138;5.398;2022-11-02T07:15:13;12.00;99.90
63299;DHT22;54535;52.138;5.398;2022-11-02T07:17:40;12.00;99.90
63299;DHT22;54535;52.138;5.398;2022-11-02T07:20:07;11.90;99.90
63299;DHT22;54535;52.138;5.398;2022-11-02T07:22:36;12.00;99.90
63299;DHT22;54535;52.138;5.398;2022-11-02T07:25:02;12.10;99.90
63299;DHT22;54535;52.138;5.398;2022-11-02T07:27:29;12.10;99.90
63299;DHT22;54535;52.138;5.398;2022-11-02T07:29:57;12.10;99.90
63299;DHT22;54535;52.138;5.398;2022-11-02T07:32:23;12.10;99.90
63299;DHT22;54535;52.138;5.398;2022-11-02T07:34:51;12.20;99.90
63299;DHT22;54535;52.138;5.398;2022-11-02T07:37:17;12.20;99.90
63299;DHT22;54535;52.138;5.398;2022-11-02T07:39:44;12.20;99.90
63299;DHT22;54535;52.138;5.398;2022-11-02T07:42:10;12.20;99.90
63299;DHT22;54535;52.138;5.398;2022-11-02T07:44:41;12.20;99.90
63299;DHT22;54535;52.138;5.398;2022-11-02T07:47:08;12.30;99.90
63299;DHT22;54535;52.138;5.398;2022-11-02T07:49:34;12.20;99.90
63299;DHT22;54535;52.138;5.398;2022-11-02T07:52:01;12.30;99.70
63299;DHT22;54535;52.138;5.398;2022-11-02T07:54:27;12.30;99.40
63299;DHT22;54535;52.138;5.398;2022-11-02T07:56:54;12.30;99.50
63299;DHT22;54535;52.138;5.398;2022-11-02T07:59:21;12.30;99.40
63299;DHT22;54535;52.138;5.398;2022-11-02T08:01:48;12.40;99.30
63299;DHT22;54535;52.138;5.398;2022-11-02T08:04:15;12.40;99.30
63299;DHT22;54535;52.138;5.398;2022-11-02T08:06:42;12.40;99.30
63299;DHT22;54535;52.138;5.398;2022-11-02T08:09:09;12.50;99.40
63299;DHT22;54535;52.138;5.398;2022-11-02T08:11:36;12.50;99.00
63299;DHT22;54535;52.138;5.398;2022-11-02T08:14:04;12.60;99.20
63299;DHT22;54535;52.138;5.398;2022-11-02T08:16:31;12.60;98.70
63299;DHT22;54535;52.138;5.398;2022-11-02T08:18:58;12.60;98.60
63299;DHT22;54535;52.138;5.398;2022-11-02T08:21:25;12.60;98.40
63299;DHT22;54535;52.138;5.398;2022-11-02T08:23:52;12.60;98.40
63299;DHT22;54535;52.138;5.398;2022-11-02T08:26:24;12.60;98.30
63299;DHT22;54535;52.138;5.398;2022-11-02T08:28:51;12.60;98.30
63299;DHT22;54535;52.138;5.398;2022-11-02T08:31:18;12.70;98.30
63299;DHT22;54535;52.138;5.398;2022-11-02T08:33:45;12.70;98.20
63299;DHT22;54535;52.138;5.398;2022-11-02T08:36:12;12.70;98.30
63299;DHT22;54535;52.138;5.398;2022-11-02T08:38:39;12.70;98.20
63299;DHT22;54535;52.138;5.398;2022-11-02T08:41:07;12.80;98.20
63299;DHT22;54535;52.138;5.398;2022-11-02T08:43:34;12.90;98.30
63299;DHT22;54535;52.138;5.398;2022-11-02T08:46:01;12.90;98.30
63299;DHT22;54535;52.138;5.398;2022-11-02T08:48:44;12.90;98.20
63299;DHT22;54535;52.138;5.398;2022-11-02T08:51:11;12.90;98.40
63299;DHT22;54535;52.138;5.398;2022-11-02T08:53:38;13.00;98.30
63299;DHT22;54535;52.138;5.398;2022-11-02T08:56:06;13.10;97.90
63299;DHT22;54535;52.138;5.398;2022-11-02T08:58:33;13.10;98.10
63299;DHT22;54535;52.138;5.398;2022-11-02T09:01:00;13.10;98.20
63299;DHT22;54535;52.138;5.398;2022-11-02T09:03:27;13.10;98.10
63299;DHT22;54535;52.138;5.398;2022-11-02T09:05:58;13.10;98.30
63299;DHT22;54535;52.138;5.398;2022-11-02T09:08:25;13.20;98.60
63299;DHT22;54535;52.138;5.398;2022-11-02T09:10:56;13.30;98.40
63299;DHT22;54535;52.138;5.398;2022-11-02T09:13:24;13.30;98.50
63299;DHT22;54535;52.138;5.398;2022-11-02T09:15:52;13.40;98.20
63299;DHT22;54535;52.138;5.398;2022-11-02T09:18:20;13.40;98.00
63299;DHT22;54535;52.138;5.398;2022-11-02T09:20:47;13.40;97.80
63299;DHT22;54535;52.138;5.398;2022-11-02T09:23:14;13.40;97.80
63299;DHT22;54535;52.138;5.398;2022-11-02T09:25:41;13.40;98.70
63299;DHT22;54535;52.138;5.398;2022-11-02T09:28:09;13.40;98.50
63299;DHT22;54535;52.138;5.398;2022-11-02T09:30:37;13.40;98.40
63299;DHT22;54535;52.138;5.398;2022-11-02T09:33:04;13.40;98.30
63299;DHT22;54535;52.138;5.398;2022-11-02T09:35:37;13.50;98.30
63299;DHT22;54535;52.138;5.398;2022-11-02T09:38:04;13.50;98.20
63299;DHT22;54535;52.138;5.398;2022-11-02T09:40:38;13.50;98.20
63299;DHT22;54535;52.138;5.398;2022-11-02T09:43:27;13.50;97.90
63299;DHT22;54535;52.138;5.398;2022-11-02T09:46:00;13.60;97.90
63299;DHT22;54535;52.138;5.398;2022-11-02T09:52:05;13.70;97.70
63299;DHT22;54535;52.138;5.398;2022-11-02T09:56:41;13.80;97.90
63299;DHT22;54535;52.138;5.398;2022-11-02T10:01:46;13.70;97.60
63299;DHT22;54535;52.138;5.398;2022-11-02T10:06:49;13.80;97.40
63299;DHT22;54535;52.138;5.398;2022-11-02T10:09:24;13.80;97.30
63299;DHT22;54535;52.138;5.398;2022-11-02T10:14:30;13.90;97.20
63299;DHT22;54535;52.138;5.398;2022-11-02T10:19:45;14.00;96.10
63299;DHT22;54535;52.138;5.398;2022-11-02T10:22:14;14.10;96.30
63299;DHT22;54535;52.138;5.398;2022-11-02T10:24:42;14.20;95.70
63299;DHT22;54535;52.138;5.398;2022-11-02T10:27:20;14.30;95.50
63299;DHT22;54535;52.138;5.398;2022-11-02T10:32:32;14.30;95.70
63299;DHT22;54535;52.138;5.398;2022-11-02T10:35:04;14.30;95.90
63299;DHT22;54535;52.138;5.398;2022-11-02T10:46:11;14.60;95.60
63299;DHT22;54535;52.138;5.398;2022-11-02T10:51:12;14.80;96.00
63299;DHT22;54535;52.138;5.398;2022-11-02T10:53:46;14.80;95.20
63299;DHT22;54535;52.138;5.398;2022-11-02T10:56:19;14.80;95.20
63299;DHT22;54535;52.138;5.398;2022-11-02T11:01:22;14.80;95.10
63299;DHT22;54535;52.138;5.398;2022-11-02T11:03:56;14.90;94.80
63299;DHT22;54535;52.138;5.398;2022-11-02T11:06:27;14.90;94.80
63299;DHT22;54535;52.138;5.398;2022-11-02T11:09:04;14.90;94.70
63299;DHT22;54535;52.138;5.398;2022-11-02T11:11:35;15.00;94.50
63299;DHT22;54535;52.138;5.398;2022-11-02T11:14:06;15.00;94.40
63299;DHT22;54535;52.138;5.398;2022-11-02T11:16:59;14.90;94.10
63299;DHT22;54535;52.138;5.398;2022-11-02T11:19:48;14.80;94.90
63299;DHT22;54535;52.138;5.398;2022-11-02T11:22:35;14.80;94.90
63299;DHT22;54535;52.138;5.398;2022-11-02T11:27:48;14.90;95.00
63299;DHT22;54535;52.138;5.398;2022-11-02T11:33:13;15.00;95.00
63299;DHT22;54535;52.138;5.398;2022-11-02T11:35:40;15.10;94.30
63299;DHT22;54535;52.138;5.398;2022-11-02T11:38:14;15.30;94.40
63299;DHT22;54535;52.138;5.398;2022-11-02T11:40:45;15.20;93.50
63299;DHT22;54535;52.138;5.398;2022-11-02T11:43:14;15.30;93.70
63299;DHT22;54535;52.138;5.398;2022-11-02T11:45:55;15.50;93.50
63299;DHT22;54535;52.138;5.398;2022-11-02T11:51:31;15.60;93.10
63299;DHT22;54535;52.138;5.398;2022-11-02T11:54:04;15.60;93.00
63299;DHT22;54535;52.138;5.398;2022-11-02T11:56:32;15.70;92.70
63299;DHT22;54535;52.138;5.398;2022-11-02T11:58:59;15.80;92.40
63299;DHT22;54535;52.138;5.398;2022-11-02T12:01:28;16.00;92.50
63299;DHT22;54535;52.138;5.398;2022-11-02T12:04:03;16.10;91.40
63299;DHT22;54535;52.138;5.398;2022-11-02T12:06:41;16.00;91.70
63299;DHT22;54535;52.138;5.398;2022-11-02T12:09:21;16.00;92.00
63299;DHT22;54535;52.138;5.398;2022-11-02T12:20:02;16.80;90.60
63299;DHT22;54535;52.138;5.398;2022-11-02T12:22:37;17.00;90.50
63299;DHT22;54535;52.138;5.398;2022-11-02T12:30:19;18.90;91.90
63299;DHT22;54535;52.138;5.398;2022-11-02T12:40:48;21.50;71.00
63299;DHT22;54535;52.138;5.398;2022-11-02T12:53:38;21.80;62.40
63299;DHT22;54535;52.138;5.398;2022-11-02T12:56:10;21.70;62.20
63299;DHT22;54535;52.138;5.398;2022-11-02T12:58:38;22.30;59.60
63299;DHT22;54535;52.138;5.398;2022-11-02T13:01:09;23.10;61.00
63299;DHT22;54535;52.138;5.398;2022-11-02T13:03:47;23.00;55.00
63299;DHT22;54535;52.138;5.398;2022-11-02T13:06:16;22.80;53.50
63299;DHT22;54535;52.138;5.398;2022-11-02T13:11:21;22.50;52.70
63299;DHT22;54535;52.138;5.398;2022-11-02T13:13:53;23.20;55.40
63299;DHT22;54535;52.138;5.398;2022-11-02T13:16:24;24.10;52.30
63299;DHT22;54535;52.138;5.398;2022-11-02T13:18:52;23.60;50.10
63299;DHT22;54535;52.138;5.398;2022-11-02T13:21:22;24.10;51.70
63299;DHT22;54535;52.138;5.398;2022-11-02T13:23:55;24.20;47.70
63299;DHT22;54535;52.138;5.398;2022-11-02T13:26:30;24.80;47.30
63299;DHT22;54535;52.138;5.398;2022-11-02T13:29:03;24.90;45.90
63299;DHT22;54535;52.138;5.398;2022-11-02T13:31:33;25.30;47.10
63299;DHT22;54535;52.138;5.398;2022-11-02T13:34:01;25.30;45.70
63299;DHT22;54535;52.138;5.398;2022-11-02T13:36:30;24.60;46.10
63299;DHT22;54535;52.138;5.398;2022-11-02T13:39:01;23.90;47.00
63299;DHT22;54535;52.138;5.398;2022-11-02T13:41:34;23.90;45.60
63299;DHT22;54535;52.138;5.398;2022-11-02T13:52:01;25.00;47.20
63299;DHT22;54535;52.138;5.398;2022-11-02T13:54:34;24.60;45.30
63299;DHT22;54535;52.138;5.398;2022-11-02T13:57:04;23.70;46.10
63299;DHT22;54535;52.138;5.398;2022-11-02T13:59:34;22.80;48.50
63299;DHT22;54535;52.138;5.398;2022-11-02T14:02:10;22.10;49.80
63299;DHT22;54535;52.138;5.398;2022-11-02T14:04:40;21.30;51.50
63299;DHT22;54535;52.138;5.398;2022-11-02T14:07:08;20.50;54.90
63299;DHT22;54535;52.138;5.398;2022-11-02T14:09:42;19.90;57.80
63299;DHT22;54535;52.138;5.398;2022-11-02T14:14:43;19.20;60.30
63299;DHT22;54535;52.138;5.398;2022-11-02T14:17:11;18.60;63.30
63299;DHT22;54535;52.138;5.398;2022-11-02T14:22:16;18.10;66.90
63299;DHT22;54535;52.138;5.398;2022-11-02T14:37:20;18.10;70.10
63299;DHT22;54535;52.138;5.398;2022-11-02T14:45:10;17.50;76.30
63299;DHT22;54535;52.138;5.398;2022-11-02T14:47:42;17.40;76.60
63299;DHT22;54535;52.138;5.398;2022-11-02T14:52:36;17.20;78.10
63299;DHT22;54535;52.138;5.398;2022-11-02T14:57:37;17.10;79.60
63299;DHT22;54535;52.138;5.398;2022-11-02T15:00:16;16.90;81.00
63299;DHT22;54535;52.138;5.398;2022-11-02T15:02:44;16.90;82.30
63299;DHT22;54535;52.138;5.398;2022-11-02T15:08:02;16.70;83.20
63299;DHT22;54535;52.138;5.398;2022-11-02T15:15:44;16.70;83.90
63299;DHT22;54535;52.138;5.398;2022-11-02T15:18:15;16.60;84.20
63299;DHT22;54535;52.138;5.398;2022-11-02T15:20:46;16.50;85.30
63299;DHT22;54535;52.138;5.398;2022-11-02T15:23:32;16.30;86.00
63299;DHT22;54535;52.138;5.398;2022-11-02T15:26:04;16.20;85.90
63299;DHT22;54535;52.138;5.398;2022-11-02T15:28:31;16.20;86.60
63299;DHT22;54535;52.138;5.398;2022-11-02T15:31:04;16.20;86.50
63299;DHT22;54535;52.138;5.398;2022-11-02T15:33:41;16.10;87.90
63299;DHT22;54535;52.138;5.398;2022-11-02T15:36:20;16.00;87.80
63299;DHT22;54535;52.138;5.398;2022-11-02T15:38:49;15.90;88.40
63299;DHT22;54535;52.138;5.398;2022-11-02T15:49:12;15.60;90.40
63299;DHT22;54535;52.138;5.398;2022-11-02T15:51:47;15.70;90.00
63299;DHT22;54535;52.138;5.398;2022-11-02T16:02:17;15.40;90.90
63299;DHT22;54535;52.138;5.398;2022-11-02T16:04:49;15.30;91.40
63299;DHT22;54535;52.138;5.398;2022-11-02T16:07:17;15.30;91.40
63299;DHT22;54535;52.138;5.398;2022-11-02T16:09:45;15.20;91.50
63299;DHT22;54535;52.138;5.398;2022-11-02T16:14:42;15.10;91.70
63299;DHT22;54535;52.138;5.398;2022-11-02T16:17:19;15.10;91.50
63299;DHT22;54535;52.138;5.398;2022-11-02T16:19:46;15.10;91.50
63299;DHT22;54535;52.138;5.398;2022-11-02T16:22:22;15.10;91.50
63299;DHT22;54535;52.138;5.398;2022-11-02T16:24:49;15.10;91.60
63299;DHT22;54535;52.138;5.398;2022-11-02T16:27:16;15.10;91.80
63299;DHT22;54535;52.138;5.398;2022-11-02T16:29:43;14.90;92.10
63299;DHT22;54535;52.138;5.398;2022-11-02T16:32:11;14.90;92.00
63299;DHT22;54535;52.138;5.398;2022-11-02T16:34:38;14.80;92.30
63299;DHT22;54535;52.138;5.398;2022-11-02T16:37:05;14.70;92.40
63299;DHT22;54535;52.138;5.398;2022-11-02T16:39:36;14.70;92.50
63299;DHT22;54535;52.138;5.398;2022-11-02T16:42:10;14.60;92.60
63299;DHT22;54535;52.138;5.398;2022-11-02T16:44:39;14.60;92.60
63299;DHT22;54535;52.138;5.398;2022-11-02T16:49:33;14.50;92.90
63299;DHT22;54535;52.138;5.398;2022-11-02T16:52:18;14.40;92.90
63299;DHT22;54535;52.138;5.398;2022-11-02T16:54:46;14.40;93.10
63299;DHT22;54535;52.138;5.398;2022-11-02T16:57:22;14.30;93.20
63299;DHT22;54535;52.138;5.398;2022-11-02T17:02:18;14.40;93.10
63299;DHT22;54535;52.138;5.398;2022-11-02T17:04:48;14.50;93.00
63299;DHT22;54535;52.138;5.398;2022-11-02T17:07:19;14.40;93.00
63299;DHT22;54535;52.138;5.398;2022-11-02T17:09:54;14.30;93.20
63299;DHT22;54535;52.138;5.398;2022-11-02T17:12:22;14.30;92.90
63299;DHT22;54535;52.138;5.398;2022-11-02T17:14:53;14.40;92.70
63299;DHT22;54535;52.138;5.398;2022-11-02T17:22:36;14.30;92.40
63299;DHT22;54535;52.138;5.398;2022-11-02T17:25:17;14.30;92.40
63299;DHT22;54535;52.138;5.398;2022-11-02T17:27:45;14.30;92.20
63299;DHT22;54535;52.138;5.398;2022-11-02T17:32:57;14.30;92.20
63299;DHT22;54535;52.138;5.398;2022-11-02T17:35:24;14.30;92.00
63299;DHT22;54535;52.138;5.398;2022-11-02T17:37:53;14.20;91.80
63299;DHT22;54535;52.138;5.398;2022-11-02T17:40:20;14.20;91.70
63299;DHT22;54535;52.138;5.398;2022-11-02T17:42:47;14.20;91.70
63299;DHT22;54535;52.138;5.398;2022-11-02T17:45:28;14.20;91.40
63299;DHT22;54535;52.138;5.398;2022-11-02T17:47:55;14.20;91.20
63299;DHT22;54535;52.138;5.398;2022-11-02T17:50:27;14.10;91.30
63299;DHT22;54535;52.138;5.398;2022-11-02T17:52:54;14.00;91.50
63299;DHT22;54535;52.138;5.398;2022-11-02T17:55:25;14.10;91.50
63299;DHT22;54535;52.138;5.398;2022-11-02T17:57:53;14.00;91.50
63299;DHT22;54535;52.138;5.398;2022-11-02T18:00:20;14.00;91.50
63299;DHT22;54535;52.138;5.398;2022-11-02T18:02:47;14.00;91.60
63299;DHT22;54535;52.138;5.398;2022-11-02T18:07:50;14.10;91.80
63299;DHT22;54535;52.138;5.398;2022-11-02T18:10:18;14.10;91.80
63299;DHT22;54535;52.138;5.398;2022-11-02T18:12:45;13.90;92.20
63299;DHT22;54535;52.138;5.398;2022-11-02T18:15:15;13.90;92.30
63299;DHT22;54535;52.138;5.398;2022-11-02T18:17:42;13.90;92.30
63299;DHT22;54535;52.138;5.398;2022-11-02T18:20:09;13.90;92.30
63299;DHT22;54535;52.138;5.398;2022-11-02T18:22:37;13.90;92.30
63299;DHT22;54535;52.138;5.398;2022-11-02T18:25:07;13.90;92.30
63299;DHT22;54535;52.138;5.398;2022-11-02T18:27:36;13.80;92.30
63299;DHT22;54535;52.138;5.398;2022-11-02T18:30:03;13.80;92.30
63299;DHT22;54535;52.138;5.398;2022-11-02T18:32:31;13.80;92.10
63299;DHT22;54535;52.138;5.398;2022-11-02T18:34:57;13.80;92.10
63299;DHT22;54535;52.138;5.398;2022-11-02T18:37:24;13.80;92.20
63299;DHT22;54535;52.138;5.398;2022-11-02T18:39:51;13.80;92.10
63299;DHT22;54535;52.138;5.398;2022-11-02T18:42:17;13.80;91.90
63299;DHT22;54535;52.138;5.398;2022-11-02T18:44:44;13.90;91.90
63299;DHT22;54535;52.138;5.398;2022-11-02T18:47:11;13.90;91.80